sensor_id;sensor_type;location;lat;lon;timestamp;P1;durP1;ratioP1;P2;durP2;ratioP2
26050;SDS011;13825;53.496;10.020;2023-04-08T00:00:12;14.10;;;7.27;;
26050;SDS011;13825;53.496;10.020;2023-04-08T00:02:40;12.57;;;5.93;;
26050;SDS011;13825;53.496;10.020;2023-04-08T00:05:07;12.37;;;6.13;;
26050;SDS011;13825;53.496;10.020;2023-04-08T00:07:34;11.97;;;5.73;;
26050;SDS011;13825;53.496;10.020;2023-04-08T00:10:03;12.73;;;5.87;;
26050;SDS011;13825;53.496;10.020;2023-04-08T00:12:31;14.37;;;6.63;;
26050;SDS011;13825;53.496;10.020;2023-04-08T00:14:59;13.67;;;6.43;;
26050;SDS011;13825;53.496;10.020;2023-04-08T00:17:27;14.30;;;6.63;;
26050;SDS011;13825;53.496;10.020;2023-04-08T00:19:55;11.90;;;6.13;;
26050;SDS011;13825;53.496;10.020;2023-04-08T00:22:22;10.37;;;5.87;;
26050;SDS011;13825;53.496;10.020;2023-04-08T00:24:50;14.20;;;6.80;;
26050;SDS011;13825;53.496;10.020;2023-04-08T00:27:17;14.93;;;7.10;;
26050;SDS011;13825;53.496;10.020;2023-04-08T00:29:44;12.70;;;6.57;;
26050;SDS011;13825;53.496;10.020;2023-04-08T00:32:11;13.80;;;7.23;;
26050;SDS011;13825;53.496;10.020;2023-04-08T00:34:40;12.57;;;6.90;;
26050;SDS011;13825;53.496;10.020;2023-04-08T00:37:07;11.97;;;6.13;;
26050;SDS011;13825;53.496;10.020;2023-04-08T00:39:36;14.53;;;6.83;;
26050;SDS011;13825;53.496;10.020;2023-04-08T00:42:03;16.03;;;6.83;;
26050;SDS011;13825;53.496;10.020;2023-04-08T00:44:30;14.30;;;6.47;;
26050;SDS011;13825;53.496;10.020;2023-04-08T00:46:57;13.93;;;7.00;;
26050;SDS011;13825;53.496;10.020;2023-04-08T00:49:25;15.93;;;6.93;;
26050;SDS011;13825;53.496;10.020;2023-04-08T00:51:54;14.27;;;6.97;;
26050;SDS011;13825;53.496;10.020;2023-04-08T00:54:21;13.87;;;6.93;;
26050;SDS011;13825;53.496;10.020;2023-04-08T00:56:48;14.90;;;7.20;;
26050;SDS011;13825;53.496;10.020;2023-04-08T00:59:16;15.00;;;6.87;;
26050;SDS011;13825;53.496;10.020;2023-04-08T01:01:46;12.07;;;6.00;;
26050;SDS011;13825;53.496;10.020;2023-04-08T01:04:20;19.27;;;7.77;;
26050;SDS011;13825;53.496;10.020;2023-04-08T01:06:48;13.70;;;6.80;;
26050;SDS011;13825;53.496;10.020;2023-04-08T01:09:18;10.40;;;6.33;;
26050;SDS011;13825;53.496;10.020;2023-04-08T01:11:45;11.07;;;6.00;;
26050;SDS011;13825;53.496;10.020;2023-04-08T01:14:16;12.00;;;5.47;;
26050;SDS011;13825;53.496;10.020;2023-04-08T01:16:45;10.47;;;5.67;;
26050;SDS011;13825;53.496;10.020;2023-04-08T01:19:26;8.70;;;4.83;;
26050;SDS011;13825;53.496;10.020;2023-04-08T01:21:54;12.13;;;6.27;;
26050;SDS011;13825;53.496;10.020;2023-04-08T01:24:27;13.30;;;5.80;;
26050;SDS011;13825;53.496;10.020;2023-04-08T01:26:56;9.20;;;5.20;;
26050;SDS011;13825;53.496;10.020;2023-04-08T01:29:25;9.00;;;5.27;;
26050;SDS011;13825;53.496;10.020;2023-04-08T01:31:54;10.40;;;5.37;;
26050;SDS011;13825;53.496;10.020;2023-04-08T01:34:22;10.20;;;5.97;;
26050;SDS011;13825;53.496;10.020;2023-04-08T01:36:50;12.33;;;6.20;;
26050;SDS011;13825;53.496;10.020;2023-04-08T01:39:17;13.47;;;6.30;;
26050;SDS011;13825;53.496;10.020;2023-04-08T01:41:46;9.17;;;5.70;;
26050;SDS011;13825;53.496;10.020;2023-04-08T01:44:16;10.27;;;6.17;;
26050;SDS011;13825;53.496;10.020;2023-04-08T01:46:44;13.37;;;6.57;;
26050;SDS011;13825;53.496;10.020;2023-04-08T01:49:12;10.17;;;5.73;;
26050;SDS011;13825;53.496;10.020;2023-04-08T01:51:40;10.63;;;6.37;;
26050;SDS011;13825;53.496;10.020;2023-04-08T01:54:07;12.80;;;6.87;;
26050;SDS011;13825;53.496;10.020;2023-04-08T01:56:35;10.43;;;6.07;;
26050;SDS011;13825;53.496;10.020;2023-04-08T01:59:04;10.80;;;6.80;;
26050;SDS011;13825;53.496;10.020;2023-04-08T02:01:35;12.17;;;6.37;;
26050;SDS011;13825;53.496;10.020;2023-04-08T02:04:02;11.17;;;5.83;;
26050;SDS011;13825;53.496;10.020;2023-04-08T02:06:30;10.80;;;6.30;;
26050;SDS011;13825;53.496;10.020;2023-04-08T02:08:58;12.07;;;6.37;;
26050;SDS011;13825;53.496;10.020;2023-04-08T02:11:25;14.97;;;6.93;;
26050;SDS011;13825;53.496;10.020;2023-04-08T02:13:53;16.37;;;7.23;;
26050;SDS011;13825;53.496;10.020;2023-04-08T02:16:22;16.13;;;7.37;;
26050;SDS011;13825;53.496;10.020;2023-04-08T02:18:53;13.73;;;7.10;;
26050;SDS011;13825;53.496;10.020;2023-04-08T02:21:23;17.63;;;7.00;;
26050;SDS011;13825;53.496;10.020;2023-04-08T02:23:53;11.83;;;6.63;;
26050;SDS011;13825;53.496;10.020;2023-04-08T02:26:21;12.20;;;6.50;;
26050;SDS011;13825;53.496;10.020;2023-04-08T02:28:49;16.17;;;7.40;;
26050;SDS011;13825;53.496;10.020;2023-04-08T02:31:17;29.77;;;7.50;;
26050;SDS011;13825;53.496;10.020;2023-04-08T02:33:45;16.97;;;7.77;;
26050;SDS011;13825;53.496;10.020;2023-04-08T02:36:14;16.03;;;7.60;;
26050;SDS011;13825;53.496;10.020;2023-04-08T02:38:46;13.40;;;7.57;;
26050;SDS011;13825;53.496;10.020;2023-04-08T02:41:13;13.30;;;6.97;;
26050;SDS011;13825;53.496;10.020;2023-04-08T02:43:41;12.33;;;6.90;;
26050;SDS011;13825;53.496;10.020;2023-04-08T02:46:08;15.13;;;6.80;;
26050;SDS011;13825;53.496;10.020;2023-04-08T02:48:36;14.47;;;7.03;;
26050;SDS011;13825;53.496;10.020;2023-04-08T02:51:03;12.57;;;7.00;;
26050;SDS011;13825;53.496;10.020;2023-04-08T02:53:32;13.30;;;7.13;;
26050;SDS011;13825;53.496;10.020;2023-04-08T02:55:59;12.77;;;7.00;;
26050;SDS011;13825;53.496;10.020;2023-04-08T02:58:26;12.97;;;6.80;;
26050;SDS011;13825;53.496;10.020;2023-04-08T03:00:54;12.53;;;7.10;;
26050;SDS011;13825;53.496;10.020;2023-04-08T03:03:21;13.27;;;7.47;;
26050;SDS011;13825;53.496;10.020;2023-04-08T03:05:53;13.70;;;6.83;;
26050;SDS011;13825;53.496;10.020;2023-04-08T03:08:20;13.97;;;6.83;;
26050;SDS011;13825;53.496;10.020;2023-04-08T03:10:49;15.40;;;7.30;;
26050;SDS011;13825;53.496;10.020;2023-04-08T03:13:16;11.93;;;6.63;;
26050;SDS011;13825;53.496;10.020;2023-04-08T03:15:43;13.17;;;6.80;;
26050;SDS011;13825;53.496;10.020;2023-04-08T03:18:11;15.90;;;6.80;;
26050;SDS011;13825;53.496;10.020;2023-04-08T03:20:38;13.13;;;6.80;;
26050;SDS011;13825;53.496;10.020;2023-04-08T03:23:05;11.13;;;6.63;;
26050;SDS011;13825;53.496;10.020;2023-04-08T03:25:32;13.93;;;7.07;;
26050;SDS011;13825;53.496;10.020;2023-04-08T03:28:01;12.50;;;6.90;;
26050;SDS011;13825;53.496;10.020;2023-04-08T03:30:28;11.13;;;6.77;;
26050;SDS011;13825;53.496;10.020;2023-04-08T03:32:55;12.10;;;6.93;;
26050;SDS011;13825;53.496;10.020;2023-04-08T03:35:22;11.87;;;6.87;;
26050;SDS011;13825;53.496;10.020;2023-04-08T03:37:49;13.93;;;6.53;;
26050;SDS011;13825;53.496;10.020;2023-04-08T03:40:17;17.20;;;7.37;;
26050;SDS011;13825;53.496;10.020;2023-04-08T03:42:44;11.17;;;6.53;;
26050;SDS011;13825;53.496;10.020;2023-04-08T03:45:13;11.83;;;7.10;;
26050;SDS011;13825;53.496;10.020;2023-04-08T03:47:40;12.33;;;7.27;;
26050;SDS011;13825;53.496;10.020;2023-04-08T03:50:07;16.53;;;7.57;;
26050;SDS011;13825;53.496;10.020;2023-04-08T03:52:34;12.27;;;7.30;;
26050;SDS011;13825;53.496;10.020;2023-04-08T03:55:02;13.73;;;8.27;;
26050;SDS011;13825;53.496;10.020;2023-04-08T03:57:29;17.57;;;8.87;;
26050;SDS011;13825;53.496;10.020;2023-04-08T03:59:56;13.83;;;6.43;;
26050;SDS011;13825;53.496;10.020;2023-04-08T04:02:25;19.40;;;8.63;;
26050;SDS011;13825;53.496;10.020;2023-04-08T04:04:52;17.90;;;8.70;;
26050;SDS011;13825;53.496;10.020;2023-04-08T04:07:19;18.20;;;8.43;;
26050;SDS011;13825;53.496;10.020;2023-04-08T04:09:46;19.63;;;8.90;;
26050;SDS011;13825;53.496;10.020;2023-04-08T04:12:18;17.17;;;9.60;;
26050;SDS011;13825;53.496;10.020;2023-04-08T04:14:45;22.00;;;9.03;;
26050;SDS011;13825;53.496;10.020;2023-04-08T04:17:12;23.63;;;10.43;;
26050;SDS011;13825;53.496;10.020;2023-04-08T04:19:41;20.60;;;10.40;;
26050;SDS011;13825;53.496;10.020;2023-04-08T04:22:08;20.07;;;10.37;;
26050;SDS011;13825;53.496;10.020;2023-04-08T04:24:35;19.20;;;9.10;;
26050;SDS011;13825;53.496;10.020;2023-04-08T04:27:03;19.53;;;10.17;;
26050;SDS011;13825;53.496;10.020;2023-04-08T04:29:30;22.33;;;9.23;;
26050;SDS011;13825;53.496;10.020;2023-04-08T04:31:57;16.50;;;9.73;;
26050;SDS011;13825;53.496;10.020;2023-04-08T04:34:24;19.97;;;9.00;;
26050;SDS011;13825;53.496;10.020;2023-04-08T04:36:53;19.63;;;9.60;;
26050;SDS011;13825;53.496;10.020;2023-04-08T04:39:20;16.60;;;8.90;;
26050;SDS011;13825;53.496;10.020;2023-04-08T04:41:48;21.90;;;9.70;;
26050;SDS011;13825;53.496;10.020;2023-04-08T04:44:15;18.43;;;9.47;;
26050;SDS011;13825;53.496;10.020;2023-04-08T04:46:42;21.13;;;9.57;;
26050;SDS011;13825;53.496;10.020;2023-04-08T04:49:09;19.00;;;7.97;;
26050;SDS011;13825;53.496;10.020;2023-04-08T04:51:37;17.30;;;7.80;;
26050;SDS011;13825;53.496;10.020;2023-04-08T04:54:06;14.93;;;7.37;;
26050;SDS011;13825;53.496;10.020;2023-04-08T04:56:33;18.53;;;8.97;;
26050;SDS011;13825;53.496;10.020;2023-04-08T04:59:00;17.50;;;8.40;;
26050;SDS011;13825;53.496;10.020;2023-04-08T05:01:29;18.67;;;8.60;;
26050;SDS011;13825;53.496;10.020;2023-04-08T05:03:56;16.53;;;8.63;;
26050;SDS011;13825;53.496;10.020;2023-04-08T05:06:24;19.00;;;8.00;;
26050;SDS011;13825;53.496;10.020;2023-04-08T05:08:51;16.80;;;8.53;;
26050;SDS011;13825;53.496;10.020;2023-04-08T05:11:20;15.80;;;8.87;;
26050;SDS011;13825;53.496;10.020;2023-04-08T05:13:47;14.83;;;7.83;;
26050;SDS011;13825;53.496;10.020;2023-04-08T05:16:15;14.80;;;7.37;;
26050;SDS011;13825;53.496;10.020;2023-04-08T05:18:42;16.13;;;8.23;;
26050;SDS011;13825;53.496;10.020;2023-04-08T05:21:09;13.60;;;7.90;;
26050;SDS011;13825;53.496;10.020;2023-04-08T05:23:36;20.87;;;7.93;;
26050;SDS011;13825;53.496;10.020;2023-04-08T05:26:05;12.97;;;7.40;;
26050;SDS011;13825;53.496;10.020;2023-04-08T05:28:34;19.10;;;8.40;;
26050;SDS011;13825;53.496;10.020;2023-04-08T05:31:01;17.20;;;8.70;;
26050;SDS011;13825;53.496;10.020;2023-04-08T05:33:28;19.13;;;8.07;;
26050;SDS011;13825;53.496;10.020;2023-04-08T05:35:56;12.90;;;7.20;;
26050;SDS011;13825;53.496;10.020;2023-04-08T05:38:23;15.80;;;8.17;;
26050;SDS011;13825;53.496;10.020;2023-04-08T05:40:50;13.20;;;7.73;;
26050;SDS011;13825;53.496;10.020;2023-04-08T05:43:18;19.70;;;8.80;;
26050;SDS011;13825;53.496;10.020;2023-04-08T05:45:46;15.23;;;8.63;;
26050;SDS011;13825;53.496;10.020;2023-04-08T05:48:13;16.37;;;8.10;;
26050;SDS011;13825;53.496;10.020;2023-04-08T05:50:40;18.43;;;8.57;;
26050;SDS011;13825;53.496;10.020;2023-04-08T05:53:08;16.23;;;7.80;;
26050;SDS011;13825;53.496;10.020;2023-04-08T05:55:35;21.23;;;8.73;;
26050;SDS011;13825;53.496;10.020;2023-04-08T05:58:02;19.23;;;8.73;;
26050;SDS011;13825;53.496;10.020;2023-04-08T06:00:30;15.93;;;9.00;;
26050;SDS011;13825;53.496;10.020;2023-04-08T06:02:58;16.67;;;8.53;;
26050;SDS011;13825;53.496;10.020;2023-04-08T06:05:25;17.03;;;8.67;;
26050;SDS011;13825;53.496;10.020;2023-04-08T06:07:53;17.97;;;8.13;;
26050;SDS011;13825;53.496;10.020;2023-04-08T06:10:20;17.40;;;9.03;;
26050;SDS011;13825;53.496;10.020;2023-04-08T06:12:47;17.60;;;8.53;;
26050;SDS011;13825;53.496;10.020;2023-04-08T06:15:14;14.87;;;8.33;;
26050;SDS011;13825;53.496;10.020;2023-04-08T06:17:41;16.70;;;8.53;;
26050;SDS011;13825;53.496;10.020;2023-04-08T06:20:11;16.77;;;8.33;;
26050;SDS011;13825;53.496;10.020;2023-04-08T06:22:38;14.30;;;8.13;;
26050;SDS011;13825;53.496;10.020;2023-04-08T06:25:05;15.73;;;7.70;;
26050;SDS011;13825;53.496;10.020;2023-04-08T06:27:32;14.20;;;7.30;;
26050;SDS011;13825;53.496;10.020;2023-04-08T06:29:59;17.40;;;8.10;;
26050;SDS011;13825;53.496;10.020;2023-04-08T06:32:27;15.63;;;7.63;;
26050;SDS011;13825;53.496;10.020;2023-04-08T06:34:54;16.93;;;8.63;;
26050;SDS011;13825;53.496;10.020;2023-04-08T06:37:22;15.40;;;8.07;;
26050;SDS011;13825;53.496;10.020;2023-04-08T06:39:50;16.20;;;8.47;;
26050;SDS011;13825;53.496;10.020;2023-04-08T06:42:17;15.97;;;7.80;;
26050;SDS011;13825;53.496;10.020;2023-04-08T06:44:44;20.53;;;8.63;;
26050;SDS011;13825;53.496;10.020;2023-04-08T06:47:11;23.13;;;9.60;;
26050;SDS011;13825;53.496;10.020;2023-04-08T06:49:38;14.00;;;7.47;;
26050;SDS011;13825;53.496;10.020;2023-04-08T06:52:06;19.77;;;8.77;;
26050;SDS011;13825;53.496;10.020;2023-04-08T06:54:34;14.93;;;7.63;;
26050;SDS011;13825;53.496;10.020;2023-04-08T06:57:01;18.43;;;9.17;;
26050;SDS011;13825;53.496;10.020;2023-04-08T06:59:29;19.57;;;9.53;;
26050;SDS011;13825;53.496;10.020;2023-04-08T07:01:56;18.33;;;8.23;;
26050;SDS011;13825;53.496;10.020;2023-04-08T07:04:24;16.53;;;8.80;;
26050;SDS011;13825;53.496;10.020;2023-04-08T07:06:51;20.93;;;8.67;;
26050;SDS011;13825;53.496;10.020;2023-04-08T07:09:19;16.67;;;7.63;;
26050;SDS011;13825;53.496;10.020;2023-04-08T07:11:47;15.43;;;7.57;;
26050;SDS011;13825;53.496;10.020;2023-04-08T07:14:15;13.27;;;7.37;;
26050;SDS011;13825;53.496;10.020;2023-04-08T07:16:43;13.63;;;7.30;;
26050;SDS011;13825;53.496;10.020;2023-04-08T07:19:10;17.47;;;8.43;;
26050;SDS011;13825;53.496;10.020;2023-04-08T07:21:38;15.60;;;7.97;;
26050;SDS011;13825;53.496;10.020;2023-04-08T07:24:05;21.77;;;8.43;;
26050;SDS011;13825;53.496;10.020;2023-04-08T07:26:32;17.23;;;7.97;;
26050;SDS011;13825;53.496;10.020;2023-04-08T07:29:01;17.47;;;8.50;;
26050;SDS011;13825;53.496;10.020;2023-04-08T07:31:28;15.57;;;8.10;;
26050;SDS011;13825;53.496;10.020;2023-04-08T07:33:55;19.60;;;8.80;;
26050;SDS011;13825;53.496;10.020;2023-04-08T07:36:23;22.10;;;9.77;;
26050;SDS011;13825;53.496;10.020;2023-04-08T07:38:50;17.40;;;9.13;;
26050;SDS011;13825;53.496;10.020;2023-04-08T07:41:17;19.33;;;8.97;;
26050;SDS011;13825;53.496;10.020;2023-04-08T07:43:45;18.63;;;7.83;;
26050;SDS011;13825;53.496;10.020;2023-04-08T07:46:14;19.10;;;9.40;;
26050;SDS011;13825;53.496;10.020;2023-04-08T07:48:41;22.17;;;8.83;;
26050;SDS011;13825;53.496;10.020;2023-04-08T07:51:08;19.57;;;8.63;;
26050;SDS011;13825;53.496;10.020;2023-04-08T07:53:36;18.10;;;8.43;;
26050;SDS011;13825;53.496;10.020;2023-04-08T07:56:09;16.50;;;7.90;;
26050;SDS011;13825;53.496;10.020;2023-04-08T07:58:36;14.13;;;8.07;;
26050;SDS011;13825;53.496;10.020;2023-04-08T08:01:04;16.40;;;7.83;;
26050;SDS011;13825;53.496;10.020;2023-04-08T08:03:33;15.00;;;8.33;;
26050;SDS011;13825;53.496;10.020;2023-04-08T08:06:00;25.97;;;15.43;;
26050;SDS011;13825;53.496;10.020;2023-04-08T08:08:27;23.07;;;18.50;;
26050;SDS011;13825;53.496;10.020;2023-04-08T08:10:57;14.47;;;8.43;;
26050;SDS011;13825;53.496;10.020;2023-04-08T08:13:24;13.87;;;6.93;;
26050;SDS011;13825;53.496;10.020;2023-04-08T08:15:52;14.97;;;7.83;;
26050;SDS011;13825;53.496;10.020;2023-04-08T08:18:19;17.50;;;8.60;;
26050;SDS011;13825;53.496;10.020;2023-04-08T08:20:48;16.20;;;8.20;;
26050;SDS011;13825;53.496;10.020;2023-04-08T08:23:15;18.47;;;10.30;;
26050;SDS011;13825;53.496;10.020;2023-04-08T08:25:42;19.03;;;8.50;;
26050;SDS011;13825;53.496;10.020;2023-04-08T08:28:10;14.10;;;7.80;;
26050;SDS011;13825;53.496;10.020;2023-04-08T08:30:37;12.47;;;7.27;;
26050;SDS011;13825;53.496;10.020;2023-04-08T08:33:04;13.57;;;7.40;;
26050;SDS011;13825;53.496;10.020;2023-04-08T08:35:31;12.83;;;6.97;;
26050;SDS011;13825;53.496;10.020;2023-04-08T08:38:00;14.47;;;6.77;;
26050;SDS011;13825;53.496;10.020;2023-04-08T08:40:27;17.23;;;9.63;;
26050;SDS011;13825;53.496;10.020;2023-04-08T08:42:57;12.83;;;7.00;;
26050;SDS011;13825;53.496;10.020;2023-04-08T08:45:25;12.53;;;6.90;;
26050;SDS011;13825;53.496;10.020;2023-04-08T08:47:52;14.73;;;7.70;;
26050;SDS011;13825;53.496;10.020;2023-04-08T08:50:20;16.90;;;9.07;;
26050;SDS011;13825;53.496;10.020;2023-04-08T08:52:47;20.13;;;13.43;;
26050;SDS011;13825;53.496;10.020;2023-04-08T08:55:17;18.93;;;9.87;;
26050;SDS011;13825;53.496;10.020;2023-04-08T08:57:44;14.60;;;9.07;;
26050;SDS011;13825;53.496;10.020;2023-04-08T09:00:14;12.23;;;6.73;;
26050;SDS011;13825;53.496;10.020;2023-04-08T09:02:42;13.37;;;7.30;;
26050;SDS011;13825;53.496;10.020;2023-04-08T09:05:09;14.57;;;6.57;;
26050;SDS011;13825;53.496;10.020;2023-04-08T09:07:37;13.33;;;7.30;;
26050;SDS011;13825;53.496;10.020;2023-04-08T09:10:06;15.23;;;7.30;;
26050;SDS011;13825;53.496;10.020;2023-04-08T09:12:36;12.40;;;7.10;;
26050;SDS011;13825;53.496;10.020;2023-04-08T09:15:18;15.03;;;7.80;;
26050;SDS011;13825;53.496;10.020;2023-04-08T09:17:46;13.17;;;7.20;;
26050;SDS011;13825;53.496;10.020;2023-04-08T09:20:13;11.77;;;6.60;;
26050;SDS011;13825;53.496;10.020;2023-04-08T09:22:53;12.17;;;7.40;;
26050;SDS011;13825;53.496;10.020;2023-04-08T09:25:21;16.43;;;7.30;;
26050;SDS011;13825;53.496;10.020;2023-04-08T09:27:50;14.40;;;6.93;;
26050;SDS011;13825;53.496;10.020;2023-04-08T09:30:18;17.27;;;8.57;;
26050;SDS011;13825;53.496;10.020;2023-04-08T09:32:46;18.00;;;8.73;;
26050;SDS011;13825;53.496;10.020;2023-04-08T09:35:14;15.93;;;8.20;;
26050;SDS011;13825;53.496;10.020;2023-04-08T09:37:41;19.07;;;9.07;;
26050;SDS011;13825;53.496;10.020;2023-04-08T09:40:09;13.90;;;8.03;;
26050;SDS011;13825;53.496;10.020;2023-04-08T09:42:38;14.77;;;8.67;;
26050;SDS011;13825;53.496;10.020;2023-04-08T09:45:08;14.43;;;8.67;;
26050;SDS011;13825;53.496;10.020;2023-04-08T09:47:37;21.80;;;7.90;;
26050;SDS011;13825;53.496;10.020;2023-04-08T09:50:08;12.03;;;6.87;;
26050;SDS011;13825;53.496;10.020;2023-04-08T09:52:37;22.60;;;9.77;;
26050;SDS011;13825;53.496;10.020;2023-04-08T09:55:07;20.33;;;9.20;;
26050;SDS011;13825;53.496;10.020;2023-04-08T09:57:36;16.60;;;10.33;;
26050;SDS011;13825;53.496;10.020;2023-04-08T10:00:09;15.63;;;9.37;;
26050;SDS011;13825;53.496;10.020;2023-04-08T10:02:40;21.20;;;13.10;;
26050;SDS011;13825;53.496;10.020;2023-04-08T10:05:09;18.10;;;11.53;;
26050;SDS011;13825;53.496;10.020;2023-04-08T10:07:38;17.43;;;9.03;;
26050;SDS011;13825;53.496;10.020;2023-04-08T10:10:06;20.07;;;8.93;;
26050;SDS011;13825;53.496;10.020;2023-04-08T10:12:35;15.47;;;8.43;;
26050;SDS011;13825;53.496;10.020;2023-04-08T10:15:22;18.20;;;9.70;;
26050;SDS011;13825;53.496;10.020;2023-04-08T10:17:50;16.47;;;8.17;;
26050;SDS011;13825;53.496;10.020;2023-04-08T10:23:03;17.27;;;8.70;;
26050;SDS011;13825;53.496;10.020;2023-04-08T10:25:31;14.00;;;9.03;;
26050;SDS011;13825;53.496;10.020;2023-04-08T10:27:59;13.87;;;8.20;;
26050;SDS011;13825;53.496;10.020;2023-04-08T10:30:44;15.23;;;8.10;;
26050;SDS011;13825;53.496;10.020;2023-04-08T10:33:12;18.40;;;9.00;;
26050;SDS011;13825;53.496;10.020;2023-04-08T10:35:40;16.27;;;9.40;;
26050;SDS011;13825;53.496;10.020;2023-04-08T10:38:10;16.80;;;9.50;;
26050;SDS011;13825;53.496;10.020;2023-04-08T10:40:38;19.37;;;8.60;;
26050;SDS011;13825;53.496;10.020;2023-04-08T10:43:06;17.60;;;8.97;;
26050;SDS011;13825;53.496;10.020;2023-04-08T10:45:34;16.13;;;9.07;;
26050;SDS011;13825;53.496;10.020;2023-04-08T10:48:13;21.83;;;10.10;;
26050;SDS011;13825;53.496;10.020;2023-04-08T10:50:41;17.83;;;9.77;;
26050;SDS011;13825;53.496;10.020;2023-04-08T10:53:09;17.80;;;9.10;;
26050;SDS011;13825;53.496;10.020;2023-04-08T10:55:36;16.73;;;8.50;;
26050;SDS011;13825;53.496;10.020;2023-04-08T10:58:04;19.57;;;9.30;;
26050;SDS011;13825;53.496;10.020;2023-04-08T11:00:32;22.20;;;10.73;;
26050;SDS011;13825;53.496;10.020;2023-04-08T11:03:00;16.40;;;9.73;;
26050;SDS011;13825;53.496;10.020;2023-04-08T11:05:29;18.87;;;10.13;;
26050;SDS011;13825;53.496;10.020;2023-04-08T11:07:57;22.10;;;10.57;;
26050;SDS011;13825;53.496;10.020;2023-04-08T11:10:24;19.10;;;9.63;;
26050;SDS011;13825;53.496;10.020;2023-04-08T11:12:52;19.40;;;9.70;;
26050;SDS011;13825;53.496;10.020;2023-04-08T11:15:20;17.23;;;10.97;;
26050;SDS011;13825;53.496;10.020;2023-04-08T11:17:47;23.97;;;11.17;;
26050;SDS011;13825;53.496;10.020;2023-04-08T11:20:15;26.57;;;13.17;;
26050;SDS011;13825;53.496;10.020;2023-04-08T11:22:44;20.10;;;11.23;;
26050;SDS011;13825;53.496;10.020;2023-04-08T11:25:11;21.20;;;11.33;;
26050;SDS011;13825;53.496;10.020;2023-04-08T11:27:38;21.07;;;12.70;;
26050;SDS011;13825;53.496;10.020;2023-04-08T11:30:06;19.73;;;11.50;;
26050;SDS011;13825;53.496;10.020;2023-04-08T11:32:35;21.17;;;11.40;;
26050;SDS011;13825;53.496;10.020;2023-04-08T11:35:04;21.40;;;11.63;;
26050;SDS011;13825;53.496;10.020;2023-04-08T11:37:35;21.93;;;12.27;;
26050;SDS011;13825;53.496;10.020;2023-04-08T11:40:07;36.13;;;20.03;;
26050;SDS011;13825;53.496;10.020;2023-04-08T11:42:34;23.37;;;12.83;;
26050;SDS011;13825;53.496;10.020;2023-04-08T11:45:08;13.20;;;8.93;;
26050;SDS011;13825;53.496;10.020;2023-04-08T11:47:35;17.73;;;10.17;;
26050;SDS011;13825;53.496;10.020;2023-04-08T11:50:03;19.97;;;10.07;;
26050;SDS011;13825;53.496;10.020;2023-04-08T11:52:43;15.17;;;8.30;;
26050;SDS011;13825;53.496;10.020;2023-04-08T11:55:21;15.27;;;9.43;;
26050;SDS011;13825;53.496;10.020;2023-04-08T11:57:48;18.80;;;10.33;;
26050;SDS011;13825;53.496;10.020;2023-04-08T12:00:16;18.90;;;11.63;;
26050;SDS011;13825;53.496;10.020;2023-04-08T12:02:43;22.13;;;12.43;;
26050;SDS011;13825;53.496;10.020;2023-04-08T12:05:11;22.07;;;10.80;;
26050;SDS011;13825;53.496;10.020;2023-04-08T12:07:38;20.23;;;11.17;;
26050;SDS011;13825;53.496;10.020;2023-04-08T12:10:06;19.80;;;11.40;;
26050;SDS011;13825;53.496;10.020;2023-04-08T12:12:34;20.47;;;12.17;;
26050;SDS011;13825;53.496;10.020;2023-04-08T12:15:02;25.67;;;14.73;;
26050;SDS011;13825;53.496;10.020;2023-04-08T12:17:29;21.27;;;12.27;;
26050;SDS011;13825;53.496;10.020;2023-04-08T12:19:56;19.70;;;10.57;;
26050;SDS011;13825;53.496;10.020;2023-04-08T12:22:23;18.60;;;11.03;;
26050;SDS011;13825;53.496;10.020;2023-04-08T12:24:51;17.50;;;10.27;;
26050;SDS011;13825;53.496;10.020;2023-04-08T12:27:18;17.87;;;9.57;;
26050;SDS011;13825;53.496;10.020;2023-04-08T12:29:47;13.50;;;8.23;;
26050;SDS011;13825;53.496;10.020;2023-04-08T12:32:14;20.60;;;10.53;;
26050;SDS011;13825;53.496;10.020;2023-04-08T12:34:41;17.37;;;8.37;;
26050;SDS011;13825;53.496;10.020;2023-04-08T12:37:09;17.83;;;9.20;;
26050;SDS011;13825;53.496;10.020;2023-04-08T12:39:36;17.87;;;9.90;;
26050;SDS011;13825;53.496;10.020;2023-04-08T12:42:04;25.77;;;16.33;;
26050;SDS011;13825;53.496;10.020;2023-04-08T12:44:31;22.87;;;12.40;;
26050;SDS011;13825;53.496;10.020;2023-04-08T12:47:00;25.40;;;15.33;;
26050;SDS011;13825;53.496;10.020;2023-04-08T12:49:27;24.47;;;13.77;;
26050;SDS011;13825;53.496;10.020;2023-04-08T12:51:54;21.57;;;12.83;;
26050;SDS011;13825;53.496;10.020;2023-04-08T12:54:22;33.30;;;20.07;;
26050;SDS011;13825;53.496;10.020;2023-04-08T12:56:49;24.03;;;14.10;;
26050;SDS011;13825;53.496;10.020;2023-04-08T12:59:16;26.47;;;13.43;;
26050;SDS011;13825;53.496;10.020;2023-04-08T13:01:43;23.53;;;11.93;;
26050;SDS011;13825;53.496;10.020;2023-04-08T13:04:12;20.40;;;11.53;;
26050;SDS011;13825;53.496;10.020;2023-04-08T13:06:39;19.60;;;13.07;;
26050;SDS011;13825;53.496;10.020;2023-04-08T13:09:07;18.83;;;10.57;;
26050;SDS011;13825;53.496;10.020;2023-04-08T13:11:34;18.27;;;9.33;;
26050;SDS011;13825;53.496;10.020;2023-04-08T13:14:01;18.77;;;10.97;;
26050;SDS011;13825;53.496;10.020;2023-04-08T13:16:28;16.67;;;10.03;;
26050;SDS011;13825;53.496;10.020;2023-04-08T13:18:56;12.80;;;8.47;;
26050;SDS011;13825;53.496;10.020;2023-04-08T13:21:24;17.57;;;10.10;;
26050;SDS011;13825;53.496;10.020;2023-04-08T13:23:52;18.70;;;10.40;;
26050;SDS011;13825;53.496;10.020;2023-04-08T13:26:21;16.33;;;10.03;;
26050;SDS011;13825;53.496;10.020;2023-04-08T13:28:48;15.33;;;8.43;;
26050;SDS011;13825;53.496;10.020;2023-04-08T13:31:16;15.83;;;9.20;;
26050;SDS011;13825;53.496;10.020;2023-04-08T13:33:44;14.53;;;8.43;;
26050;SDS011;13825;53.496;10.020;2023-04-08T13:36:11;14.90;;;9.93;;
26050;SDS011;13825;53.496;10.020;2023-04-08T13:38:39;22.13;;;11.70;;
26050;SDS011;13825;53.496;10.020;2023-04-08T13:41:07;20.47;;;13.13;;
26050;SDS011;13825;53.496;10.020;2023-04-08T13:43:34;20.53;;;10.97;;
26050;SDS011;13825;53.496;10.020;2023-04-08T13:46:01;16.60;;;11.70;;
26050;SDS011;13825;53.496;10.020;2023-04-08T13:48:29;41.43;;;20.83;;
26050;SDS011;13825;53.496;10.020;2023-04-08T13:50:56;39.20;;;21.80;;
26050;SDS011;13825;53.496;10.020;2023-04-08T13:53:23;48.77;;;28.77;;
26050;SDS011;13825;53.496;10.020;2023-04-08T13:55:52;65.20;;;45.87;;
26050;SDS011;13825;53.496;10.020;2023-04-08T13:58:21;28.20;;;17.57;;
26050;SDS011;13825;53.496;10.020;2023-04-08T14:00:48;74.10;;;48.87;;
26050;SDS011;13825;53.496;10.020;2023-04-08T14:03:16;118.40;;;72.57;;
26050;SDS011;13825;53.496;10.020;2023-04-08T14:05:43;95.97;;;55.40;;
26050;SDS011;13825;53.496;10.020;2023-04-08T14:08:11;203.97;;;111.70;;
26050;SDS011;13825;53.496;10.020;2023-04-08T14:10:38;47.37;;;33.23;;
26050;SDS011;13825;53.496;10.020;2023-04-08T14:13:07;32.20;;;19.57;;
26050;SDS011;13825;53.496;10.020;2023-04-08T14:15:34;55.57;;;33.90;;
26050;SDS011;13825;53.496;10.020;2023-04-08T14:18:01;42.80;;;24.20;;
26050;SDS011;13825;53.496;10.020;2023-04-08T14:20:28;79.63;;;43.73;;
26050;SDS011;13825;53.496;10.020;2023-04-08T14:22:56;238.57;;;126.53;;
26050;SDS011;13825;53.496;10.020;2023-04-08T14:25:23;215.97;;;121.23;;